Airfield :
LOGIN :

Register | Disclaimer

   EN    FR    IT 

 










Legend :    VFR   Marginal VFR   IFR   Intensive IFR   Very Intensive IFR
Visi :
Ceiling :
>= 8 km
>= 3000ft
5 to 8 km
1000 to 3000 ft
1500m to 5 km
500 to 1000 ft
800 to 1500m
200 to 500 ft
< 800m
< 200 ft
Symbols :   Thunderstorms  Fog  Heavy snow  Heavy precipitations  Wind > 20 kt
SIGMETs :     Misc.  Thunderstorms  Icing  Turbulence  Mountain Waves  Volcanic Ashes






- Airport Elevation : 2265 ft
- IATA code : CZL


DABC - Mohamed Boudiaf Int. Constantine

CURRENT METAR :
  • 281830Z 33008KT CAVOK 20/09 Q1016

EXPIRED METARs :
  • 281800Z 34006KT 9999 FEW030 21/08 Q1016
  • 281730Z 36014KT 9999 FEW030 21/07 Q1015
  • 281700Z 34017KT 9999 FEW030 22/08 Q1015
  • 281630Z 34020KT 9999 FEW030 22/09 Q1015
  • 281600Z 34016KT 9999 FEW026 23/10 Q1015

TAF TAF DABC
Valid from the 28 at 18:00 until the 29 at 18:00 UTC


281700Z 2818/2918 34017KT 9999 FEW030 SCT030
TEMPO 2818/2822 34020G30KT FEW026CB
BECMG 2821/2823 15008KT



MET'MAP, your aeronautical weather chart ! - Copyright ORBIFLY December 2007 - Disclaimer

ORBIFLY MET'MAP TEAM :

Programming & Development : Alexandra Zaïnal
Original concept : Baudouin d'Aumeries
Technical & hardware support : Manuel Goepfert
Assistance : Marc-Olivier Méhu

Contact : metmap@orbifly.com




SOURCES & CREDITS :

   NOAA